Time;durP1;ratioP1;P1;durP2;ratioP2;P2;SDS_P1;SDS_P2;PMS_P1;PMS_P2;Temp;Humidity;BMP_temperature;BMP_pressure;BME280_temperature;BME280_humidity;BME280_pressure;Samples;Min_cycle;Max_cycle;Signal;HPM_P1;HPM_P2
2022/12/13 00:00:38;;;;;;;10.40;8.25;;;18.30;42.50;;;;;;5052850;28;20049;-37
2022/12/13 00:03:04;;;;;;;11.25;8.93;;;18.30;42.50;;;;;;5052503;28;20045;-41
2022/12/13 00:05:32;;;;;;;10.70;8.15;;;18.30;42.50;;;;;;5052300;28;20498;-39
2022/12/13 00:07:59;;;;;;;10.55;8.38;;;18.20;42.50;;;;;;5052498;28;20056;-42
2022/12/13 00:10:27;;;;;;;11.45;8.65;;;18.20;42.50;;;;;;5052490;28;20048;-40
2022/12/13 00:12:54;;;;;;;11.18;8.15;;;18.20;42.60;;;;;;5052299;28;20486;-40
2022/12/13 00:15:21;;;;;;;11.00;8.50;;;18.10;42.50;;;;;;5052495;28;20122;-40
2022/12/13 00:17:49;;;;;;;11.50;8.82;;;18.10;42.60;;;;;;5052672;28;20128;-37
2022/12/13 00:20:16;;;;;;;12.77;9.07;;;18.10;42.60;;;;;;5052121;28;20051;-39
2022/12/13 00:30:25;;;;;;;12.57;9.48;;;17.90;42.60;;;;;;5052508;28;20169;-41
2022/12/13 00:35:39;;;;;;;12.15;9.32;;;17.90;42.70;;;;;;5042316;28;20049;-38
2022/12/13 00:38:06;;;;;;;11.52;9.10;;;17.80;42.60;;;;;;5032450;28;20045;-38
2022/12/13 00:40:33;;;;;;;12.40;9.25;;;17.80;42.70;;;;;;5031935;28;20053;-40
2022/12/13 00:42:59;;;;;;;12.20;8.73;;;17.80;42.70;;;;;;5032042;28;20072;-42
2022/12/13 00:45:27;;;;;;;12.40;9.50;;;17.80;42.70;;;;;;5032224;28;20055;-41
2022/12/13 00:47:54;;;;;;;13.55;9.32;;;17.70;42.70;;;;;;5039294;28;20049;-39
2022/12/13 00:50:21;;;;;;;13.20;9.70;;;17.70;42.70;;;;;;5051783;28;20524;-40
2022/12/13 00:52:47;;;;;;;14.93;10.10;;;17.70;42.70;;;;;;5051787;28;20053;-39
2022/12/13 00:55:14;;;;;;;11.10;8.27;;;17.60;42.70;;;;;;5051943;28;20051;-40
2022/12/13 00:57:41;;;;;;;14.15;9.52;;;17.60;42.70;;;;;;5052083;28;20057;-37
2022/12/13 01:00:09;;;;;;;12.30;9.23;;;17.60;42.70;;;;;;5051961;28;20052;-39
2022/12/13 01:02:37;;;;;;;12.75;9.73;;;17.60;43.40;;;;;;5050356;28;20138;-40
2022/12/13 01:05:04;;;;;;;12.75;9.30;;;17.60;42.80;;;;;;5051671;28;20080;-40
2022/12/13 01:07:31;;;;;;;15.43;10.75;;;17.50;42.80;;;;;;5051283;28;20055;-40
2022/12/13 01:09:57;;;;;;;13.50;9.80;;;17.50;42.80;;;;;;5051775;28;20045;-40
2022/12/13 01:12:24;;;;;;;13.80;10.18;;;17.40;42.80;;;;;;5051535;28;20045;-43
2022/12/13 01:14:51;;;;;;;13.15;9.88;;;17.40;42.90;;;;;;5051517;28;20075;-40
2022/12/13 01:17:17;;;;;;;15.35;10.55;;;17.30;43.00;;;;;;5051322;28;20049;-44
2022/12/13 01:19:45;;;;;;;15.75;10.30;;;17.30;43.00;;;;;;5051553;28;20049;-43
2022/12/13 01:22:12;;;;;;;13.52;10.38;;;17.30;43.00;;;;;;5051519;28;20048;-43
2022/12/13 01:24:40;;;;;;;14.23;9.85;;;17.30;43.10;;;;;;5050540;28;20087;-43
2022/12/13 01:27:06;;;;;;;14.10;10.48;;;17.20;43.10;;;;;;5051559;28;20049;-43
2022/12/13 01:29:33;;;;;;;13.52;9.85;;;17.20;43.10;;;;;;5050139;28;20134;-43
2022/12/13 01:32:00;;;;;;;12.77;9.98;;;17.20;43.10;;;;;;5051167;28;20045;-43
2022/12/13 01:34:27;;;;;;;14.38;10.80;;;17.20;43.10;;;;;;5051236;28;20485;-44
2022/12/13 01:36:55;;;;;;;14.73;9.50;;;17.20;43.10;;;;;;5042037;28;20056;-43
2022/12/13 01:39:22;;;;;;;15.65;10.75;;;17.10;43.10;;;;;;5031692;28;20068;-43
2022/12/13 01:41:50;;;;;;;14.43;10.35;;;17.10;43.20;;;;;;5035523;28;20052;-44
2022/12/13 01:45:06;;;;;;;13.05;10.20;;;17.10;43.10;;;;;;5051237;28;20184;-44
2022/12/13 01:47:36;;;;;;;16.27;10.97;;;17.10;43.20;;;;;;5009427;28;20061;-44
2022/12/13 01:50:05;;;;;;;13.65;10.13;;;17.00;43.20;;;;;;5042102;28;20479;-43
2022/12/13 01:52:33;;;;;;;14.73;10.45;;;17.00;43.20;;;;;;5051833;28;20044;-43
2022/12/13 01:55:00;;;;;;;14.65;11.00;;;16.90;43.20;;;;;;5054710;28;20060;-43
2022/12/13 01:57:27;;;;;;;15.32;11.30;;;16.90;43.20;;;;;;5055147;28;20063;-43
2022/12/13 01:59:54;;;;;;;15.73;11.13;;;16.90;43.20;;;;;;5055001;28;20494;-41
2022/12/13 02:02:20;;;;;;;17.30;11.65;;;16.90;43.30;;;;;;5054678;28;20045;-43
2022/12/13 02:04:50;;;;;;;13.95;10.75;;;16.80;45.50;;;;;;5054876;28;20052;-43
2022/12/13 02:07:18;;;;;;;15.00;10.82;;;16.80;43.30;;;;;;5054909;28;20457;-43
2022/12/13 02:09:46;;;;;;;15.18;10.93;;;16.80;43.40;;;;;;5054723;28;20055;-42
2022/12/13 02:12:13;;;;;;;15.02;11.05;;;16.80;43.40;;;;;;5054822;28;20045;-43
2022/12/13 02:14:39;;;;;;;15.93;11.38;;;16.80;43.40;;;;;;5054397;28;20047;-43
2022/12/13 02:17:09;;;;;;;15.77;11.52;;;16.70;43.30;;;;;;5054621;28;20055;-40
2022/12/13 02:20:08;;;;;;;15.98;11.48;;;16.70;43.30;;;;;;5054573;28;20390;-43
2022/12/13 02:22:47;;;;;;;15.85;11.50;;;16.80;43.30;;;;;;5054220;28;20405;-43
2022/12/13 02:25:26;;;;;;;15.43;11.32;;;16.80;43.30;;;;;;5054477;28;20056;-43
2022/12/13 02:28:04;;;;;;;14.57;11.00;;;16.80;43.30;;;;;;5054550;28;20045;-43
2022/12/13 02:30:34;;;;;;;16.60;11.25;;;16.80;43.30;;;;;;5054860;28;20057;-43
2022/12/13 02:33:23;;;;;;;15.60;11.43;;;16.80;43.90;;;;;;5054295;28;20394;-43
2022/12/13 02:35:52;;;;;;;15.63;10.82;;;16.80;43.20;;;;;;5053640;28;20055;-42
2022/12/13 02:38:24;;;;;;;13.60;10.55;;;16.80;43.30;;;;;;5054302;28;20049;-42
2022/12/13 02:40:53;;;;;;;14.93;10.93;;;16.80;43.10;;;;;;5054317;28;20057;-40
2022/12/13 02:43:21;;;;;;;14.57;11.00;;;16.80;43.10;;;;;;5054079;28;20053;-43
2022/12/13 02:45:50;;;;;;;16.20;10.80;;;16.90;43.20;;;;;;5053539;28;20049;-43
2022/12/13 02:48:18;;;;;;;15.77;11.57;;;16.90;43.10;;;;;;5054315;28;20075;-42
2022/12/13 02:50:45;;;;;;;15.30;10.93;;;16.90;43.00;;;;;;5054101;28;20051;-42
2022/12/13 02:53:12;;;;;;;15.77;11.40;;;17.00;43.00;;;;;;5053554;28;20041;-41
2022/12/13 02:55:39;;;;;;;15.52;11.07;;;17.00;43.00;;;;;;5054072;28;20405;-41
2022/12/13 02:58:06;;;;;;;15.80;11.10;;;17.00;43.00;;;;;;5054285;28;20068;-43
2022/12/13 03:00:41;;;;;;;13.70;10.57;;;17.00;43.00;;;;;;5053840;28;20044;-43
2022/12/13 03:03:17;;;;;;;14.10;10.60;;;17.10;43.00;;;;;;5053773;28;20056;-42
2022/12/13 03:08:38;;;;;;;16.48;11.98;;;17.10;42.80;;;;;;5053702;28;20045;-41
2022/12/13 03:11:06;;;;;;;15.25;10.50;;;17.10;42.80;;;;;;5053568;28;20051;-43
2022/12/13 03:13:37;;;;;;;14.65;10.70;;;17.20;42.80;;;;;;5053411;28;20049;-43
2022/12/13 03:16:14;;;;;;;15.30;11.50;;;17.20;42.80;;;;;;5053606;28;20041;-43
2022/12/13 03:18:42;;;;;;;16.55;11.52;;;17.20;42.70;;;;;;5053627;28;20045;-43
2022/12/13 03:21:09;;;;;;;15.57;11.05;;;17.30;42.70;;;;;;5053479;28;20059;-43
2022/12/13 03:23:36;;;;;;;14.98;11.00;;;17.30;42.60;;;;;;5052096;28;20512;-40
2022/12/13 03:26:04;;;;;;;15.13;11.10;;;17.30;42.60;;;;;;5053246;28;20043;-43
2022/12/13 03:28:31;;;;;;;16.38;11.50;;;17.30;42.60;;;;;;5053419;28;20059;-42
2022/12/13 03:30:58;;;;;;;16.17;12.10;;;17.30;42.50;;;;;;5053414;28;20052;-43
2022/12/13 03:33:24;;;;;;;16.08;11.80;;;17.30;42.50;;;;;;5052995;28;20041;-43
2022/12/13 03:35:52;;;;;;;15.02;11.60;;;17.40;42.50;;;;;;5052197;28;20128;-43
2022/12/13 03:38:19;;;;;;;15.73;11.10;;;17.40;42.40;;;;;;5033299;28;20128;-43
2022/12/13 03:40:46;;;;;;;15.02;10.88;;;17.40;42.30;;;;;;5046772;28;20045;-43
2022/12/13 03:43:12;;;;;;;14.77;11.10;;;17.40;42.30;;;;;;5052944;28;20049;-43
2022/12/13 03:45:39;;;;;;;16.67;11.23;;;17.40;42.30;;;;;;5053438;28;20049;-43
2022/12/13 03:48:06;;;;;;;16.05;11.35;;;17.50;42.30;;;;;;5053261;28;20063;-43
2022/12/13 03:50:32;;;;;;;19.48;12.63;;;17.50;42.30;;;;;;5053067;28;20071;-41
2022/12/13 03:53:01;;;;;;;16.10;11.90;;;17.50;42.20;;;;;;5052512;28;20055;-43
2022/12/13 03:55:27;;;;;;;17.90;11.63;;;17.50;42.10;;;;;;5052600;28;20049;-43
2022/12/13 03:57:54;;;;;;;13.88;11.02;;;17.50;42.10;;;;;;5052489;28;20053;-43
2022/12/13 04:00:21;;;;;;;15.20;11.15;;;17.60;42.10;;;;;;5052650;28;20045;-43
2022/12/13 04:02:48;;;;;;;16.77;11.75;;;17.60;42.20;;;;;;5052410;28;20138;-43
2022/12/13 04:05:14;;;;;;;16.30;11.75;;;17.60;42.10;;;;;;5052491;28;20049;-43
2022/12/13 04:07:41;;;;;;;17.55;11.35;;;17.60;42.00;;;;;;5052231;28;20055;-41
2022/12/13 04:10:10;;;;;;;19.40;11.88;;;17.60;41.90;;;;;;5052331;28;20052;-43
2022/12/13 04:15:21;;;;;;;14.32;10.90;;;17.60;41.90;;;;;;5051917;28;20485;-43
2022/12/13 04:17:47;;;;;;;15.70;11.25;;;17.60;41.90;;;;;;5050561;28;20049;-41
2022/12/13 04:20:14;;;;;;;16.40;11.63;;;17.60;41.80;;;;;;5050846;28;20169;-43
2022/12/13 04:22:41;;;;;;;14.63;10.70;;;17.60;41.70;;;;;;5051585;28;20182;-44
2022/12/13 04:25:09;;;;;;;16.17;11.38;;;17.60;41.70;;;;;;5052252;28;20104;-44
2022/12/13 04:27:36;;;;;;;21.00;11.25;;;17.60;41.70;;;;;;5052001;28;20409;-43
2022/12/13 04:30:04;;;;;;;14.93;10.85;;;17.60;41.80;;;;;;5051730;28;20057;-44
2022/12/13 04:32:30;;;;;;;15.35;11.18;;;17.60;41.80;;;;;;5051423;28;20055;-44
2022/12/13 04:34:57;;;;;;;14.27;10.80;;;17.60;41.80;;;;;;5051678;28;20415;-44
2022/12/13 04:37:24;;;;;;;17.67;11.82;;;17.60;41.80;;;;;;5038043;28;20123;-43
2022/12/13 04:39:50;;;;;;;17.10;11.55;;;17.60;41.80;;;;;;5031580;28;20059;-44
2022/12/13 04:42:18;;;;;;;15.85;11.05;;;17.60;41.80;;;;;;5031847;28;20068;-44
2022/12/13 04:44:45;;;;;;;15.13;10.63;;;17.60;41.90;;;;;;5031796;28;20042;-44
2022/12/13 04:47:12;;;;;;;14.35;11.02;;;17.50;41.80;;;;;;5033939;28;20123;-44
2022/12/13 04:49:38;;;;;;;14.77;11.07;;;17.60;41.90;;;;;;5050433;28;20052;-43
2022/12/13 04:52:05;;;;;;;16.27;11.20;;;17.50;41.90;;;;;;5051190;28;20048;-44
2022/12/13 04:54:32;;;;;;;16.05;11.60;;;17.50;41.90;;;;;;5050750;28;20053;-44
2022/12/13 04:56:59;;;;;;;15.13;10.85;;;17.50;41.90;;;;;;5051268;28;20132;-42
2022/12/13 04:59:27;;;;;;;15.90;11.32;;;17.50;41.90;;;;;;5051612;28;20056;-43
2022/12/13 05:01:53;;;;;;;17.00;11.75;;;17.50;41.90;;;;;;5051258;28;20067;-44
2022/12/13 05:04:20;;;;;;;17.60;12.80;;;17.50;41.90;;;;;;5051243;28;20059;-44
2022/12/13 05:06:47;;;;;;;17.10;12.40;;;17.50;41.80;;;;;;5051275;28;20051;-42
2022/12/13 05:09:13;;;;;;;17.88;12.15;;;17.50;41.80;;;;;;5051398;28;20488;-44
2022/12/13 05:11:40;;;;;;;15.85;12.02;;;17.50;41.80;;;;;;5051479;28;20063;-44
2022/12/13 05:14:07;;;;;;;16.38;12.50;;;17.40;41.70;;;;;;5050889;28;20055;-44
2022/12/13 05:16:35;;;;;;;15.82;11.38;;;17.40;41.70;;;;;;5051382;28;20055;-43
2022/12/13 05:19:01;;;;;;;15.95;11.43;;;17.50;41.80;;;;;;5050902;28;20045;-44
2022/12/13 05:21:28;;;;;;;15.88;11.73;;;17.40;41.70;;;;;;5051200;28;20055;-44
2022/12/13 05:23:55;;;;;;;15.80;11.73;;;17.50;41.80;;;;;;5051222;28;20051;-44
2022/12/13 05:26:21;;;;;;;17.08;12.13;;;17.50;41.70;;;;;;5050755;28;20044;-43
2022/12/13 05:28:48;;;;;;;15.82;11.82;;;17.50;41.70;;;;;;5053456;28;20045;-44
2022/12/13 05:31:15;;;;;;;17.05;12.20;;;17.50;41.80;;;;;;5054656;28;20099;-43
2022/12/13 05:33:43;;;;;;;18.02;12.13;;;17.40;41.70;;;;;;5053599;28;20044;-43
2022/12/13 05:36:10;;;;;;;16.63;11.88;;;17.50;41.80;;;;;;5053082;28;20379;-43
2022/12/13 05:38:36;;;;;;;19.17;12.52;;;17.50;41.70;;;;;;5054828;28;20074;-44
2022/12/13 05:41:03;;;;;;;18.00;12.68;;;17.50;41.80;;;;;;5055072;28;20132;-44
2022/12/13 05:43:30;;;;;;;17.50;12.88;;;17.60;41.80;;;;;;5054928;28;20047;-41
2022/12/13 05:45:56;;;;;;;18.73;13.43;;;17.50;41.60;;;;;;5055163;28;20055;-43
2022/12/13 05:48:23;;;;;;;17.88;12.35;;;17.50;41.60;;;;;;5055175;28;20048;-44
2022/12/13 05:50:51;;;;;;;19.17;13.65;;;17.50;41.60;;;;;;5055417;28;20045;-44
2022/12/13 05:53:18;;;;;;;19.20;12.73;;;17.60;41.60;;;;;;5054773;28;20045;-44
2022/12/13 05:55:44;;;;;;;17.67;12.60;;;17.50;41.50;;;;;;5054946;28;20045;-44
2022/12/13 05:58:14;;;;;;;19.23;12.98;;;17.50;41.50;;;;;;5054922;28;20494;-44
2022/12/13 06:00:40;;;;;;;19.60;12.40;;;17.60;41.50;;;;;;5055053;28;20053;-43
2022/12/13 06:03:07;;;;;;;19.67;12.68;;;17.60;41.50;;;;;;5054623;28;20052;-43
2022/12/13 06:05:34;;;;;;;19.38;12.75;;;17.60;41.40;;;;;;5054923;28;20420;-44
2022/12/13 06:08:02;;;;;;;18.55;12.90;;;17.60;41.40;;;;;;5054687;28;20044;-41
2022/12/13 06:10:28;;;;;;;17.38;12.20;;;17.60;41.40;;;;;;5054602;28;20056;-43
2022/12/13 06:12:55;;;;;;;18.58;12.57;;;17.60;41.30;;;;;;5054127;28;20382;-44
2022/12/13 06:15:22;;;;;;;18.50;12.98;;;17.60;41.30;;;;;;5054572;28;20049;-44
2022/12/13 06:17:48;;;;;;;17.25;12.20;;;17.70;41.30;;;;;;5053669;28;20063;-44
2022/12/13 06:20:15;;;;;;;18.95;12.30;;;17.70;41.30;;;;;;5053857;28;20487;-44
2022/12/13 06:22:42;;;;;;;17.90;12.93;;;17.70;41.30;;;;;;5052860;28;20456;-44
2022/12/13 06:25:10;;;;;;;18.45;12.93;;;17.70;41.20;;;;;;5052945;28;20068;-44
2022/12/13 06:27:37;;;;;;;17.35;12.10;;;17.70;41.10;;;;;;5053284;28;20198;-44
2022/12/13 06:30:04;;;;;;;18.25;12.52;;;17.70;41.10;;;;;;5053244;28;20059;-44
2022/12/13 06:32:34;;;;;;;15.35;11.32;;;17.80;41.10;;;;;;5052960;28;20067;-44
2022/12/13 06:35:00;;;;;;;16.67;11.93;;;17.80;41.00;;;;;;5053077;28;20051;-44
2022/12/13 06:37:27;;;;;;;16.38;11.60;;;17.80;40.90;;;;;;5051363;28;20059;-42
2022/12/13 06:39:54;;;;;;;15.63;11.73;;;17.80;41.00;;;;;;5052877;28;20080;-44
2022/12/13 06:42:22;;;;;;;17.25;11.70;;;17.80;41.10;;;;;;5052854;28;20040;-44
2022/12/13 06:44:50;;;;;;;17.70;12.02;;;17.80;41.10;;;;;;5052773;28;20053;-44
2022/12/13 06:47:17;;;;;;;14.75;10.90;;;17.90;41.20;;;;;;5052747;28;20052;-44
2022/12/13 06:49:44;;;;;;;16.70;11.10;;;17.90;41.20;;;;;;5052691;28;20051;-44
2022/12/13 06:52:11;;;;;;;13.80;10.60;;;17.90;41.20;;;;;;5052244;28;20081;-42
2022/12/13 06:54:38;;;;;;;15.93;11.32;;;17.90;41.10;;;;;;5052930;28;20064;-44
2022/12/13 06:57:05;;;;;;;16.52;11.73;;;17.90;41.10;;;;;;5052724;28;20049;-44
2022/12/13 06:59:33;;;;;;;15.40;11.40;;;18.00;41.20;;;;;;5052432;28;20041;-44
2022/12/13 07:01:59;;;;;;;20.63;11.32;;;18.00;41.20;;;;;;5053012;28;20083;-44
2022/12/13 07:04:26;;;;;;;15.73;11.98;;;18.00;41.20;;;;;;5052417;28;20124;-44
2022/12/13 07:06:53;;;;;;;16.30;11.70;;;18.10;41.20;;;;;;5052741;28;20553;-44
2022/12/13 07:09:19;;;;;;;16.77;10.85;;;18.10;41.10;;;;;;5052721;28;20080;-44
2022/12/13 07:11:46;;;;;;;16.83;11.68;;;18.10;41.00;;;;;;5052514;28;20041;-43
2022/12/13 07:14:13;;;;;;;14.27;10.70;;;18.10;41.00;;;;;;5051933;28;20493;-44
2022/12/13 07:16:41;;;;;;;16.58;11.15;;;18.20;41.10;;;;;;5052221;28;20143;-44
2022/12/13 07:19:09;;;;;;;17.50;10.90;;;18.20;41.00;;;;;;5051654;28;20421;-44
2022/12/13 07:21:37;;;;;;;16.35;11.20;;;18.20;41.00;;;;;;5015754;28;1070295;-44
2022/12/13 07:24:04;;;;;;;16.02;10.18;;;18.30;41.00;;;;;;5052683;28;20517;-44
2022/12/13 07:26:30;;;;;;;15.70;10.60;;;18.30;41.00;;;;;;5053198;28;20052;-43
2022/12/13 07:28:57;;;;;;;14.98;10.68;;;18.30;40.90;;;;;;5052884;28;20049;-44
2022/12/13 07:31:24;;;;;;;14.25;10.48;;;18.40;40.90;;;;;;5053071;28;20171;-43
2022/12/13 07:33:52;;;;;;;14.35;10.82;;;18.40;40.80;;;;;;5052579;28;20041;-43
2022/12/13 07:36:20;;;;;;;13.48;10.10;;;18.40;40.70;;;;;;5052241;28;20132;-44
2022/12/13 07:38:50;;;;;;;13.55;10.57;;;18.40;40.70;;;;;;5052672;28;20482;-44
2022/12/13 07:41:17;;;;;;;15.18;10.23;;;18.50;40.70;;;;;;5052912;28;20055;-43
2022/12/13 07:43:44;;;;;;;14.20;10.45;;;18.50;40.70;;;;;;5052748;28;20446;-42
2022/12/13 07:46:10;;;;;;;15.23;10.75;;;18.50;40.60;;;;;;5052646;28;20051;-44
2022/12/13 07:48:37;;;;;;;13.05;10.32;;;18.60;40.60;;;;;;5052267;28;20092;-42
2022/12/13 07:51:06;;;;;;;12.43;9.70;;;18.60;40.50;;;;;;5051696;28;20147;-44
2022/12/13 07:53:33;;;;;;;13.50;10.25;;;18.60;40.40;;;;;;5050951;28;20052;-45
2022/12/13 07:56:01;;;;;;;13.50;10.18;;;18.60;40.40;;;;;;5052390;28;20051;-44
2022/12/13 07:58:28;;;;;;;17.90;10.73;;;18.70;40.40;;;;;;5050982;28;20059;-44
2022/12/13 08:00:58;;;;;;;14.75;10.82;;;18.70;40.30;;;;;;5052309;28;20045;-44
2022/12/13 08:03:25;;;;;;;13.30;9.85;;;18.70;40.20;;;;;;5051681;28;20516;-44
2022/12/13 08:05:58;;;;;;;14.95;10.15;;;18.80;40.20;;;;;;5052216;28;20047;-44
2022/12/13 08:08:26;;;;;;;13.10;10.00;;;18.80;40.10;;;;;;5052210;28;20044;-44
2022/12/13 08:10:53;;;;;;;14.25;10.50;;;18.80;40.00;;;;;;5051042;28;20493;-45
2022/12/13 08:13:20;;;;;;;13.45;10.00;;;18.90;40.10;;;;;;5051450;28;20128;-44
2022/12/13 08:15:46;;;;;;;13.80;9.88;;;18.90;40.00;;;;;;5050321;28;20124;-44
2022/12/13 08:18:13;;;;;;;14.13;10.10;;;18.90;40.00;;;;;;5052009;28;20052;-44
2022/12/13 08:20:40;;;;;;;14.00;9.80;;;18.90;40.50;;;;;;5052190;28;20055;-44
2022/12/13 08:23:06;;;;;;;12.02;9.45;;;19.00;40.00;;;;;;5052537;28;20067;-43
2022/12/13 08:25:34;;;;;;;14.52;10.10;;;19.00;39.90;;;;;;5052063;28;20049;-45
2022/12/13 08:28:01;;;;;;;13.63;9.20;;;19.00;39.90;;;;;;5051941;28;20508;-44
2022/12/13 08:30:28;;;;;;;12.45;9.52;;;19.00;39.90;;;;;;5051361;28;20071;-44
2022/12/13 08:32:55;;;;;;;14.05;9.88;;;19.00;40.00;;;;;;5049579;28;20049;-44
2022/12/13 08:35:21;;;;;;;13.20;9.23;;;19.10;39.90;;;;;;5047763;28;20432;-44
2022/12/13 08:37:48;;;;;;;13.40;8.85;;;19.10;40.00;;;;;;5051009;28;20045;-44
2022/12/13 08:40:15;;;;;;;12.75;9.10;;;19.10;40.10;;;;;;5051524;28;20041;-43
2022/12/13 08:42:43;;;;;;;13.10;8.95;;;19.20;40.20;;;;;;5051336;28;20072;-44
2022/12/13 08:45:11;;;;;;;11.25;8.65;;;19.20;40.20;;;;;;5051301;28;20052;-44
2022/12/13 08:47:37;;;;;;;10.20;8.25;;;19.20;40.20;;;;;;5051156;28;20135;-44
2022/12/13 08:50:05;;;;;;;12.10;8.27;;;19.30;40.30;;;;;;5051479;28;20041;-44
2022/12/13 08:52:32;;;;;;;11.40;8.52;;;19.30;40.30;;;;;;5051259;28;20053;-44
2022/12/13 08:54:58;;;;;;;11.32;8.50;;;19.40;40.40;;;;;;5051339;28;20048;-45
2022/12/13 08:57:25;;;;;;;10.57;8.30;;;19.40;40.30;;;;;;5051234;28;20497;-41
2022/12/13 08:59:54;;;;;;;10.05;8.25;;;19.50;40.40;;;;;;5054836;28;20044;-44
2022/12/13 09:02:20;;;;;;;10.50;8.25;;;19.50;40.40;;;;;;5052509;28;20049;-44
2022/12/13 09:04:47;;;;;;;10.95;8.35;;;19.60;40.40;;;;;;5051250;28;20048;-44
2022/12/13 09:07:14;;;;;;;10.57;8.05;;;19.60;40.30;;;;;;5051314;28;20045;-44
2022/12/13 09:09:40;;;;;;;10.13;7.70;;;19.70;40.40;;;;;;5050960;28;20487;-44
2022/12/13 09:12:07;;;;;;;11.25;8.13;;;19.70;40.30;;;;;;5050487;28;20122;-44
2022/12/13 09:14:34;;;;;;;9.50;7.82;;;19.70;40.20;;;;;;5050521;28;20052;-44
2022/12/13 09:17:02;;;;;;;10.35;7.78;;;19.80;40.20;;;;;;5051058;28;20402;-44
2022/12/13 09:19:29;;;;;;;9.70;7.50;;;19.80;40.20;;;;;;5051230;28;20051;-44
2022/12/13 09:21:55;;;;;;;10.75;8.13;;;19.90;40.20;;;;;;5051269;28;20441;-45
2022/12/13 09:24:22;;;;;;;10.85;7.82;;;19.90;40.20;;;;;;5050426;28;20041;-44
2022/12/13 09:26:49;;;;;;;9.43;7.70;;;20.00;40.20;;;;;;5052030;28;20049;-44
2022/12/13 09:29:16;;;;;;;11.45;8.15;;;20.00;40.10;;;;;;5050993;28;20053;-42
2022/12/13 09:31:42;;;;;;;9.88;7.72;;;20.00;40.00;;;;;;5051579;28;20045;-44
2022/12/13 09:34:10;;;;;;;11.00;7.78;;;20.00;40.00;;;;;;5051038;28;20037;-44
2022/12/13 09:36:37;;;;;;;10.43;8.23;;;20.10;40.00;;;;;;5050975;28;20055;-44
2022/12/13 09:39:04;;;;;;;9.25;7.53;;;20.10;39.90;;;;;;5051449;28;20529;-44
2022/12/13 09:41:32;;;;;;;11.25;8.23;;;20.20;39.90;;;;;;5050610;28;20052;-43
2022/12/13 09:44:16;;;;;;;9.45;7.40;;;20.20;39.90;;;;;;5050784;28;20041;-43
2022/12/13 09:46:44;;;;;;;10.48;8.10;;;20.20;39.90;;;;;;5049712;28;20071;-44
2022/12/13 09:49:14;;;;;;;10.35;8.18;;;20.20;39.80;;;;;;5048115;28;20071;-44
2022/12/13 09:51:41;;;;;;;10.77;7.82;;;20.30;39.80;;;;;;5050108;28;20065;-44
2022/12/13 09:54:08;;;;;;;9.25;7.72;;;20.30;39.70;;;;;;5050232;28;20045;-44
2022/12/13 09:56:34;;;;;;;12.82;8.52;;;20.30;39.70;;;;;;5050520;28;20056;-44
2022/12/13 09:59:02;;;;;;;9.88;7.75;;;20.30;39.60;;;;;;5051253;28;20505;-44
2022/12/13 10:01:29;;;;;;;11.50;8.70;;;20.30;39.70;;;;;;5051072;28;20045;-42
2022/12/13 10:03:56;;;;;;;10.20;8.00;;;20.40;39.60;;;;;;5050908;28;20126;-44
2022/12/13 10:06:27;;;;;;;11.73;8.57;;;20.40;39.40;;;;;;5051069;28;20573;-44
2022/12/13 10:08:54;;;;;;;11.70;8.50;;;20.40;39.30;;;;;;5051217;28;20041;-44
2022/12/13 10:11:21;;;;;;;10.45;7.70;;;20.40;39.30;;;;;;5051351;28;20060;-43
2022/12/13 10:13:50;;;;;;;11.00;8.13;;;20.40;39.30;;;;;;5052149;28;20049;-44
2022/12/13 10:16:18;;;;;;;10.32;8.20;;;20.40;39.30;;;;;;5053524;28;20061;-43
2022/12/13 10:18:45;;;;;;;11.75;8.25;;;20.40;39.40;;;;;;5054782;28;20049;-44
2022/12/13 10:21:14;;;;;;;11.88;8.13;;;20.50;39.40;;;;;;5054367;28;20060;-44
2022/12/13 10:23:42;;;;;;;12.20;8.70;;;20.50;39.40;;;;;;5054666;28;20049;-44
2022/12/13 10:26:09;;;;;;;10.88;8.10;;;20.50;39.40;;;;;;5054739;28;20055;-44
2022/12/13 10:28:36;;;;;;;13.32;8.70;;;20.20;44.50;;;;;;5054671;28;20075;-44
2022/12/13 10:31:02;;;;;;;13.27;8.85;;;20.50;39.40;;;;;;5054299;28;20051;-44
2022/12/13 10:33:30;;;;;;;11.48;8.15;;;20.50;44.70;;;;;;5054267;28;20052;-43
2022/12/13 10:36:04;;;;;;;13.20;9.20;;;20.60;39.50;;;;;;5052874;28;20045;-43
2022/12/13 10:38:31;;;;;;;16.40;9.55;;;20.50;39.30;;;;;;5052437;28;20060;-44
2022/12/13 10:40:59;;;;;;;14.25;9.30;;;20.50;39.30;;;;;;5053862;28;20041;-42
2022/12/13 10:43:26;;;;;;;13.60;8.95;;;20.60;39.30;;;;;;5034999;28;20049;-41
2022/12/13 10:46:00;;;;;;;13.88;9.20;;;20.60;39.20;;;;;;5054266;28;20052;-44
2022/12/13 10:48:32;;;;;;;12.00;8.63;;;20.60;39.20;;;;;;5052563;28;20059;-44
2022/12/13 10:51:00;;;;;;;13.13;9.02;;;20.60;39.20;;;;;;5054015;28;20582;-44
2022/12/13 10:53:31;;;;;;;13.95;9.35;;;20.60;39.20;;;;;;5053987;28;20053;-44
2022/12/13 10:55:59;;;;;;;14.52;9.52;;;20.60;39.10;;;;;;5054010;28;20413;-44
2022/12/13 10:58:34;;;;;;;12.55;9.00;;;20.70;43.40;;;;;;5053863;28;20552;-44
2022/12/13 11:01:08;;;;;;;12.25;9.02;;;20.60;39.10;;;;;;5054290;28;20421;-44
2022/12/13 11:03:35;;;;;;;11.82;8.55;;;20.60;39.10;;;;;;5053618;28;20155;-43
2022/12/13 11:06:03;;;;;;;13.40;9.30;;;20.60;43.10;;;;;;5053827;28;20060;-42
2022/12/13 11:08:30;;;;;;;13.38;9.35;;;20.60;39.20;;;;;;5053797;28;20053;-42
2022/12/13 11:10:59;;;;;;;14.23;9.75;;;19.50;38.60;;;;;;5053840;28;20424;-43
2022/12/13 11:13:31;;;;;;;15.15;9.27;;;20.60;39.20;;;;;;5053405;28;20056;-43
2022/12/13 11:15:58;;;;;;;13.07;8.88;;;20.60;39.20;;;;;;5053580;28;20413;-43
2022/12/13 11:18:25;;;;;;;13.10;8.75;;;20.60;43.20;;;;;;5053718;28;20055;-42
2022/12/13 11:20:54;;;;;;;27.27;9.82;;;20.60;39.20;;;;;;5053646;28;20053;-44
2022/12/13 11:23:25;;;;;;;11.82;8.85;;;20.60;39.20;;;;;;5052874;28;20051;-43
2022/12/13 11:25:55;;;;;;;14.13;9.75;;;20.60;39.80;;;;;;5052276;28;20071;-44
2022/12/13 11:28:31;;;;;;;15.45;10.15;;;20.60;39.20;;;;;;5053634;28;20055;-44
2022/12/13 11:31:04;;;;;;;14.65;9.13;;;20.60;39.20;;;;;;5053290;28;20049;-44
2022/12/13 11:33:33;;;;;;;14.00;9.05;;;20.60;39.30;;;;;;5053004;28;20084;-42
2022/12/13 11:36:06;;;;;;;14.90;9.50;;;20.60;39.30;;;;;;5050973;28;20049;-43
2022/12/13 11:38:36;;;;;;;14.27;9.73;;;20.60;39.30;;;;;;5040430;28;20124;-43
2022/12/13 11:41:06;;;;;;;13.43;8.95;;;20.60;39.30;;;;;;5052978;28;20045;-43
2022/12/13 11:43:37;;;;;;;13.20;9.20;;;20.60;39.30;;;;;;5053207;28;20055;-43
2022/12/13 11:46:06;;;;;;;13.35;9.10;;;20.70;39.30;;;;;;5052929;28;20055;-43
2022/12/13 11:48:36;;;;;;;13.52;9.18;;;20.70;39.30;;;;;;5053049;28;20041;-42
2022/12/13 11:51:04;;;;;;;13.65;10.00;;;20.70;39.40;;;;;;5052793;28;20130;-42
2022/12/13 11:53:33;;;;;;;13.60;9.43;;;20.70;39.40;;;;;;5052362;28;20059;-42
2022/12/13 11:56:04;;;;;;;14.43;9.45;;;20.70;39.30;;;;;;5053046;28;20048;-43
2022/12/13 11:58:36;;;;;;;12.43;9.48;;;20.70;39.30;;;;;;5052426;28;20049;-44
2022/12/13 12:01:04;;;;;;;15.80;9.70;;;20.70;39.30;;;;;;5052236;28;20055;-42
2022/12/13 12:03:35;;;;;;;12.25;9.60;;;20.70;39.30;;;;;;5049261;28;53420;-42
2022/12/13 12:06:04;;;;;;;16.35;10.27;;;20.70;39.30;;;;;;5046629;28;62317;-43
2022/12/13 12:08:34;;;;;;;13.35;9.00;;;20.80;39.40;;;;;;4991922;28;58191;-43
2022/12/13 12:11:04;;;;;;;12.88;9.27;;;20.80;39.40;;;;;;5052189;28;20060;-42
2022/12/13 12:13:35;;;;;;;13.00;9.55;;;20.80;39.40;;;;;;5048838;28;20045;-43
2022/12/13 12:16:07;;;;;;;13.57;9.60;;;20.80;40.00;;;;;;5051498;28;20053;-43
2022/12/13 12:18:33;;;;;;;12.25;8.88;;;20.80;39.30;;;;;;5050591;28;20482;-43
2022/12/13 12:21:07;;;;;;;14.45;9.43;;;20.80;39.40;;;;;;5051915;28;20055;-41
2022/12/13 12:23:41;;;;;;;13.05;9.40;;;20.80;39.30;;;;;;5051316;28;20041;-41
2022/12/13 12:26:10;;;;;;;11.98;8.98;;;20.80;39.30;;;;;;5049286;28;20128;-43
2022/12/13 12:28:51;;;;;;;13.80;9.68;;;20.80;39.30;;;;;;5051606;28;20052;-43
2022/12/13 12:31:22;;;;;;;10.98;8.88;;;20.80;39.30;;;;;;5050753;28;20045;-43
2022/12/13 12:33:53;;;;;;;11.80;8.75;;;20.80;39.20;;;;;;5049176;28;20049;-43
2022/12/13 12:36:29;;;;;;;10.73;8.15;;;20.90;39.20;;;;;;5050860;28;20049;-42
2022/12/13 12:39:03;;;;;;;12.45;8.45;;;20.90;39.20;;;;;;5050444;28;20044;-41
2022/12/13 12:41:39;;;;;;;12.40;9.03;;;20.90;39.20;;;;;;5049030;28;20045;-43
2022/12/13 12:44:13;;;;;;;12.88;8.98;;;20.90;39.20;;;;;;5049685;28;20474;-43
2022/12/13 12:46:47;;;;;;;12.27;8.45;;;20.90;39.20;;;;;;5051090;28;20534;-41
2022/12/13 12:49:54;;;;;;;11.65;8.98;;;20.90;39.10;;;;;;5051847;28;20615;-44
2022/12/13 12:52:25;;;;;;;10.95;8.13;;;20.90;39.20;;;;;;5051834;28;20056;-42